createdAt,value
2023-08-02T00:00:16.421Z,6.7
2023-08-02T00:02:16.899Z,6.6
2023-08-02T00:04:17.013Z,6.8
2023-08-02T00:06:17.390Z,6.4
2023-08-02T00:08:18.082Z,7.2
2023-08-02T00:10:18.212Z,6.9
2023-08-02T00:12:18.369Z,7.2
2023-08-02T00:14:19.379Z,6.5
2023-08-02T00:18:19.327Z,7
2023-08-02T00:20:19.832Z,7.2
2023-08-02T00:22:19.972Z,6.9
2023-08-02T00:24:20.407Z,7.1
2023-08-02T00:26:21.358Z,7
2023-08-02T00:28:21.720Z,7.2
2023-08-02T00:30:21.575Z,7.4
2023-08-02T00:32:21.758Z,7.1
2023-08-02T00:34:22.163Z,7.6
2023-08-02T00:36:22.688Z,7.3
2023-08-02T00:38:22.742Z,7.4
2023-08-02T00:40:25.374Z,7
2023-08-02T00:42:23.516Z,7.7
2023-08-02T00:44:23.795Z,7.5
2023-08-02T00:46:24.536Z,8.2
2023-08-02T00:48:24.559Z,8
2023-08-02T00:50:26.612Z,8.3
2023-08-02T00:52:26.917Z,8.6
2023-08-02T00:54:25.809Z,8.1
2023-08-02T00:56:25.884Z,8.2
2023-08-02T00:58:26.266Z,7.6
2023-08-02T01:00:26.549Z,8.3
2023-08-02T01:02:27.111Z,8.1
2023-08-02T01:04:27.743Z,8.7
2023-08-02T01:06:33.348Z,8.4
2023-08-02T01:08:33.852Z,8.8
2023-08-02T01:10:33.707Z,8.2
2023-08-02T01:12:31.005Z,8.5
2023-08-02T01:14:32.423Z,8.4
2023-08-02T01:16:32.867Z,8.1
2023-08-02T01:18:29.707Z,8
2023-08-02T01:20:29.840Z,8
2023-08-02T01:22:31.418Z,8
2023-08-02T01:24:33.301Z,8.3
2023-08-02T01:26:32.768Z,8.3
2023-08-02T01:28:36.909Z,8
2023-08-02T01:30:35.548Z,8.6
2023-08-02T01:32:31.952Z,8.7
2023-08-02T01:34:33.708Z,9.1
2023-08-02T01:36:33.212Z,8.4
2023-08-02T01:38:33.309Z,8.1
2023-08-02T01:40:33.165Z,8.1
2023-08-02T01:42:33.716Z,7.9
2023-08-02T01:44:34.342Z,8.6
2023-08-02T01:46:34.371Z,8.5
2023-08-02T01:48:34.366Z,9.1
2023-08-02T01:50:34.648Z,9
2023-08-02T01:52:35.030Z,8.4
2023-08-02T01:54:35.317Z,9.2
2023-08-02T01:56:35.652Z,9
2023-08-02T01:58:36.079Z,9
2023-08-02T02:00:36.306Z,9.2
2023-08-02T02:02:36.718Z,8.9
2023-08-02T02:04:37.051Z,9
2023-08-02T02:06:37.226Z,9.1
2023-08-02T02:08:37.576Z,9.6
2023-08-02T02:10:37.887Z,8.7
2023-08-02T02:12:38.231Z,9.1
2023-08-02T02:14:38.418Z,9.4
2023-08-02T02:16:39.827Z,8.9
2023-08-02T02:18:39.113Z,9.5
2023-08-02T02:20:39.431Z,8.8
2023-08-02T02:22:40.421Z,9.3
2023-08-02T02:24:40.058Z,8.8
2023-08-02T02:26:40.689Z,8.3
2023-08-02T02:28:40.650Z,8.8
2023-08-02T02:30:42.210Z,8.5
2023-08-02T02:32:41.283Z,8.2
2023-08-02T02:34:41.609Z,8.8
2023-08-02T02:36:42.214Z,8.9
2023-08-02T02:38:42.228Z,8.4
2023-08-02T02:40:43.021Z,9.7
2023-08-02T02:42:43.036Z,9.4
2023-08-02T02:44:44.189Z,8.7
2023-08-02T02:46:43.923Z,9.2
2023-08-02T02:48:43.840Z,9.4
2023-08-02T02:50:44.327Z,9.6
2023-08-02T02:52:44.582Z,8.8
2023-08-02T02:54:44.727Z,8.5
2023-08-02T02:56:45.120Z,7.5
2023-08-02T02:58:45.344Z,7.7
2023-08-02T03:00:45.712Z,7.9
2023-08-02T03:02:46.074Z,8
2023-08-02T03:04:46.457Z,8.5
2023-08-02T03:06:46.896Z,7.4
2023-08-02T03:08:46.980Z,7.4
2023-08-02T03:10:47.393Z,7.3
2023-08-02T03:12:47.660Z,7.6
2023-08-02T03:14:48.013Z,7.3
2023-08-02T03:16:48.318Z,7.2
2023-08-02T03:18:48.700Z,7.2
2023-08-02T03:20:49.070Z,7.1
2023-08-02T03:22:49.364Z,7.4
2023-08-02T03:24:49.737Z,7.4
2023-08-02T03:26:50.185Z,7.4
2023-08-02T03:28:50.495Z,7
2023-08-02T03:30:51.000Z,7.6
2023-08-02T03:32:51.355Z,7.7
2023-08-02T03:34:51.689Z,7.2
2023-08-02T03:36:52.109Z,6.9
2023-08-02T03:38:52.522Z,7.6
2023-08-02T03:40:54.053Z,7.7
2023-08-02T03:42:53.328Z,7.1
2023-08-02T03:44:53.728Z,6.9
2023-08-02T03:46:54.427Z,6.9
2023-08-02T03:48:54.698Z,24.3
2023-08-02T03:50:55.474Z,7.8
2023-08-02T03:52:55.864Z,8.3
2023-08-02T03:54:56.128Z,8.1
2023-08-02T03:56:56.662Z,7.2
2023-08-02T03:58:57.156Z,7.2
2023-08-02T04:00:57.658Z,6.9
2023-08-02T04:02:58.448Z,6.9
2023-08-02T04:04:58.804Z,6.7
2023-08-02T04:06:59.491Z,6.3
2023-08-02T04:09:00.015Z,6.2
2023-08-02T04:11:03.332Z,6.2
2023-08-02T04:13:01.392Z,5.3
2023-08-02T04:15:02.640Z,5.7
2023-08-02T04:17:03.527Z,5.4
2023-08-02T04:19:03.454Z,5.4
2023-08-02T04:21:04.219Z,6
2023-08-02T04:23:05.262Z,5.8
2023-08-02T04:25:06.302Z,5.7
2023-08-02T04:27:07.595Z,5.4
2023-08-02T04:29:07.990Z,6.2
2023-08-02T04:31:07.839Z,5.7
2023-08-02T04:33:08.778Z,5.8
2023-08-02T04:35:09.249Z,5.5
2023-08-02T04:37:10.399Z,5.5
2023-08-02T04:39:10.881Z,5.5
2023-08-02T04:41:15.201Z,5.6
2023-08-02T04:43:12.493Z,6.6
2023-08-02T04:45:13.379Z,6.2
2023-08-02T04:47:14.358Z,5.7
2023-08-02T04:49:15.016Z,6.4
2023-08-02T04:51:15.605Z,5.6
2023-08-02T04:53:17.456Z,5.4
2023-08-02T04:55:17.350Z,5.8
2023-08-02T04:57:18.136Z,5.1
2023-08-02T04:59:18.878Z,5.5
2023-08-02T05:01:19.716Z,5.8
2023-08-02T05:03:20.582Z,6.5
2023-08-02T05:05:21.408Z,5.5
2023-08-02T05:07:22.303Z,5.5
2023-08-02T05:09:23.182Z,5.2
2023-08-02T05:11:23.999Z,5.7
2023-08-02T05:13:25.260Z,5.1
2023-08-02T05:15:25.876Z,5
2023-08-02T05:17:28.890Z,5
2023-08-02T05:19:27.468Z,5.1
2023-08-02T05:21:28.413Z,5.4
2023-08-02T05:23:29.175Z,5.1
2023-08-02T05:25:31.760Z,5.4
2023-08-02T05:27:31.331Z,4.6
2023-08-02T05:29:31.965Z,5.3
2023-08-02T05:31:32.919Z,4.7
2023-08-02T05:33:34.218Z,4.9
2023-08-02T05:35:34.864Z,4.2
2023-08-02T05:37:35.774Z,4.4
2023-08-02T05:39:36.824Z,4
2023-08-02T05:41:37.526Z,4.1
2023-08-02T05:43:38.516Z,3.7
2023-08-02T05:45:39.483Z,4.6
2023-08-02T05:47:40.513Z,4.7
2023-08-02T05:49:41.244Z,3.8
2023-08-02T05:51:42.365Z,4.3
2023-08-02T05:53:43.157Z,5.5
2023-08-02T05:55:44.132Z,4.5
2023-08-02T05:57:44.987Z,4.3
2023-08-02T05:59:45.911Z,4.7
2023-08-02T06:01:46.935Z,4.6
2023-08-02T06:03:47.968Z,4.9
2023-08-02T06:05:48.712Z,4.6
2023-08-02T06:07:49.903Z,4.7
2023-08-02T06:09:50.620Z,5.5
2023-08-02T06:11:51.550Z,5.4
2023-08-02T06:13:52.626Z,4.6
2023-08-02T06:15:53.522Z,5.4
2023-08-02T06:17:54.692Z,6.2
2023-08-02T06:19:56.008Z,4.8
2023-08-02T06:21:56.174Z,4.6
2023-08-02T06:23:57.269Z,4.7
2023-08-02T06:25:58.076Z,4.4
2023-08-02T06:27:59.119Z,4.5
2023-08-02T06:30:00.225Z,4.5
2023-08-02T06:32:00.886Z,4.2
2023-08-02T06:34:01.926Z,4.3
2023-08-02T06:36:03.115Z,4.8
2023-08-02T06:38:03.724Z,5.1
2023-08-02T06:40:05.754Z,4.6
2023-08-02T06:42:06.744Z,4.4
2023-08-02T06:44:07.096Z,4.6
2023-08-02T06:46:07.446Z,4.5
2023-08-02T06:48:08.434Z,4.6
2023-08-02T06:50:09.867Z,4.8
2023-08-02T06:52:10.235Z,4
2023-08-02T06:54:11.282Z,3.8
2023-08-02T06:56:12.947Z,4
2023-08-02T06:58:13.048Z,3.6
2023-08-02T07:00:14.363Z,4.1
2023-08-02T07:02:14.751Z,4.2
2023-08-02T07:04:15.716Z,3.7
2023-08-02T07:06:18.704Z,4.4
2023-08-02T07:08:17.518Z,4
2023-08-02T07:10:18.569Z,4.1
2023-08-02T07:12:19.363Z,4.2
2023-08-02T07:14:20.720Z,4.5
2023-08-02T07:16:21.112Z,3.6
2023-08-02T07:18:22.409Z,4
2023-08-02T07:20:22.969Z,3.4
2023-08-02T07:22:23.576Z,3.3
2023-08-02T07:24:24.553Z,3.5
2023-08-02T07:26:25.401Z,3.7
2023-08-02T07:28:26.217Z,3.6
2023-08-02T07:30:26.898Z,3.7
2023-08-02T07:32:27.684Z,4.9
2023-08-02T07:34:28.400Z,3.5
2023-08-02T07:36:29.085Z,3.6
2023-08-02T07:38:30.318Z,3.7
2023-08-02T07:40:30.598Z,4
2023-08-02T07:42:31.363Z,3.6
2023-08-02T07:44:31.955Z,3.5
2023-08-02T07:46:33.092Z,3.6
2023-08-02T07:48:33.369Z,3.7
2023-08-02T07:50:34.538Z,3.5
2023-08-02T07:52:34.658Z,3.7
2023-08-02T07:54:39.851Z,4.3
2023-08-02T07:56:35.941Z,3.9
2023-08-02T07:58:36.590Z,3.9
2023-08-02T08:00:37.221Z,3.3
2023-08-02T08:02:38.950Z,3.8
2023-08-02T08:04:38.453Z,3.6
2023-08-02T08:06:39.124Z,5.6
2023-08-02T08:08:40.662Z,3.9
2023-08-02T08:10:40.290Z,4.1
2023-08-02T08:12:40.918Z,3.8
2023-08-02T08:14:42.841Z,4.3
2023-08-02T08:16:42.252Z,4.1
2023-08-02T08:18:43.261Z,3.5
2023-08-02T08:20:43.415Z,4.1
2023-08-02T08:22:44.053Z,4
2023-08-02T08:24:44.697Z,3.8
2023-08-02T08:26:45.259Z,4
2023-08-02T08:28:46.584Z,3.4
2023-08-02T08:30:46.515Z,3.7
2023-08-02T08:32:47.266Z,3.9
2023-08-02T08:34:47.662Z,3.2
2023-08-02T08:36:48.365Z,3.5
2023-08-02T08:38:50.260Z,3.4
2023-08-02T08:40:50.161Z,3.4
2023-08-02T08:42:51.689Z,3.7
2023-08-02T08:44:54.516Z,3.2
2023-08-02T08:46:52.425Z,3.1
2023-08-02T08:48:52.134Z,4.5
2023-08-02T08:50:55.271Z,3.6
2023-08-02T08:52:59.322Z,3.2
2023-08-02T08:54:53.930Z,3.3
2023-08-02T08:56:55.693Z,2.9
2023-08-02T08:58:56.745Z,3.3
2023-08-02T09:00:57.479Z,3.3
2023-08-02T09:02:58.838Z,3.1
2023-08-02T09:04:58.087Z,2.8
2023-08-02T09:06:57.645Z,2.8
2023-08-02T09:08:58.272Z,3.6
2023-08-02T09:10:59.026Z,3.6
2023-08-02T09:12:59.512Z,2.7
2023-08-02T09:15:01.658Z,3.2
2023-08-02T09:17:02.555Z,2.6
2023-08-02T09:19:01.466Z,3.2
2023-08-02T09:21:02.098Z,2.5
2023-08-02T09:23:15.057Z,3
2023-08-02T09:25:04.616Z,2.5
2023-08-02T09:27:05.119Z,2.7
2023-08-02T09:29:07.115Z,3.5
2023-08-02T09:31:19.900Z,3.3
2023-08-02T09:33:08.086Z,2.5
2023-08-02T09:35:06.912Z,2.8
2023-08-02T09:37:07.588Z,2.8
2023-08-02T09:39:12.225Z,3.6
2023-08-02T09:41:59.162Z,2.9
2023-08-02T09:43:09.920Z,2.8
2023-08-02T09:45:10.643Z,2.7
2023-08-02T09:47:11.304Z,3.1
2023-08-02T09:49:17.889Z,2.4
2023-08-02T09:51:11.335Z,2.8
2023-08-02T09:53:16.310Z,2.7
2023-08-02T09:55:12.518Z,2.7
2023-08-02T09:57:13.127Z,2.5
2023-08-02T09:59:15.114Z,3.2
2023-08-02T10:01:14.680Z,2.8
2023-08-02T10:03:24.947Z,2.5
2023-08-02T10:05:17.360Z,2.5
2023-08-02T10:07:17.313Z,2.5
2023-08-02T10:09:20.072Z,2.6
2023-08-02T10:11:18.057Z,3.3
2023-08-02T10:13:23.486Z,2.8
2023-08-02T10:15:19.188Z,2.5
2023-08-02T10:17:20.369Z,2.2
2023-08-02T10:19:20.701Z,2.7
2023-08-02T10:21:21.890Z,2.5
2023-08-02T10:23:20.717Z,2.5
2023-08-02T10:25:22.149Z,2.5
2023-08-02T10:27:22.508Z,3
2023-08-02T10:29:23.968Z,3.1
2023-08-02T10:31:23.537Z,2.6
2023-08-02T10:33:23.592Z,3.1
2023-08-02T10:36:00.508Z,2.4
2023-08-02T10:37:52.503Z,2.4
2023-08-02T10:39:54.725Z,2.4
2023-08-02T10:41:26.815Z,4.2
2023-08-02T10:43:26.453Z,3.3
2023-08-02T10:45:27.024Z,2.9
2023-08-02T10:47:29.675Z,2.8
2023-08-02T10:49:38.118Z,2.7
2023-08-02T10:51:30.117Z,3
2023-08-02T10:53:29.273Z,2.6
2023-08-02T10:55:29.912Z,2.7
2023-08-02T10:57:30.449Z,2.1
2023-08-02T10:59:38.415Z,2.6
2023-08-02T11:01:31.468Z,2.4
2023-08-02T11:03:32.000Z,2.4
2023-08-02T11:05:42.355Z,3
2023-08-02T11:07:33.090Z,2.4
2023-08-02T11:09:33.672Z,2.3
2023-08-02T11:11:34.693Z,2.2
2023-08-02T11:13:40.017Z,2.5
2023-08-02T11:15:35.256Z,2.6
2023-08-02T11:17:39.707Z,2.3
2023-08-02T11:19:36.820Z,2.3
2023-08-02T11:21:37.461Z,2.6
2023-08-02T11:23:37.727Z,2.8
2023-08-02T11:25:41.103Z,2.6
2023-08-02T11:29:38.967Z,2
2023-08-02T11:31:40.285Z,2.5
2023-08-02T11:33:42.413Z,2.2
2023-08-02T11:35:41.488Z,2.4
2023-08-02T11:37:41.153Z,2.4
2023-08-02T11:40:12.910Z,3.2
2023-08-02T11:41:42.284Z,2.4
2023-08-02T11:43:42.849Z,2.8
2023-08-02T11:45:43.222Z,2.5
2023-08-02T11:47:44.220Z,3.2
2023-08-02T11:49:52.740Z,3.1
2023-08-02T11:51:44.708Z,3.1
2023-08-02T11:53:49.327Z,3
2023-08-02T11:55:46.472Z,2.4
2023-08-02T11:57:47.064Z,2.1
2023-08-02T11:59:47.195Z,2.3
2023-08-02T12:01:47.459Z,3.1
2023-08-02T12:04:03.318Z,2.5
2023-08-02T12:05:59.162Z,2.3
2023-08-02T12:07:48.955Z,2
2023-08-02T12:09:50.042Z,2.1
2023-08-02T12:11:52.255Z,2.2
2023-08-02T12:13:50.956Z,2.2
2023-08-02T12:16:00.229Z,2.5
2023-08-02T12:18:06.961Z,3.3
2023-08-02T12:19:52.703Z,3
2023-08-02T12:21:57.776Z,2.7
2023-08-02T12:23:53.769Z,2.3
2023-08-02T12:25:53.744Z,2.3
2023-08-02T12:28:09.295Z,1.9
2023-08-02T12:30:07.972Z,2.3
2023-08-02T12:31:55.726Z,2.4
2023-08-02T12:33:56.058Z,2.3
2023-08-02T12:35:56.524Z,2.6
2023-08-02T12:37:58.382Z,2.7
2023-08-02T12:39:57.664Z,2.2
2023-08-02T12:41:58.158Z,2.1
2023-08-02T12:44:01.812Z,2.4
2023-08-02T12:45:59.383Z,2.1
2023-08-02T12:47:59.835Z,2.4
2023-08-02T12:50:00.399Z,2.4
2023-08-02T12:52:00.916Z,2.4
2023-08-02T12:54:01.360Z,2.3
2023-08-02T12:56:02.125Z,2.4
2023-08-02T12:58:02.539Z,2.8
2023-08-02T13:00:03.744Z,2.4
2023-08-02T13:02:03.748Z,2.3
2023-08-02T13:04:04.222Z,2.6
2023-08-02T13:06:04.636Z,2.6
2023-08-02T13:08:05.150Z,2.7
2023-08-02T13:10:06.685Z,2.7
2023-08-02T13:12:08.752Z,2.9
2023-08-02T13:14:06.713Z,2.8
2023-08-02T13:16:07.444Z,3.2
2023-08-02T13:18:07.812Z,2.9
2023-08-02T13:20:09.332Z,3
2023-08-02T13:22:08.867Z,2.7
2023-08-02T13:24:09.772Z,2.6
2023-08-02T13:26:09.842Z,2.8
2023-08-02T13:28:10.495Z,3
2023-08-02T13:30:11.689Z,2.8
2023-08-02T13:32:11.386Z,4.6
2023-08-02T13:34:12.031Z,2.6
2023-08-02T13:36:12.602Z,2.4
2023-08-02T13:38:13.028Z,2.2
2023-08-02T13:40:13.626Z,2.6
2023-08-02T13:42:14.045Z,2.4
2023-08-02T13:44:14.583Z,2.4
2023-08-02T13:46:15.187Z,2.3
2023-08-02T13:48:15.615Z,2.3
2023-08-02T13:50:16.559Z,2.1
2023-08-02T13:52:16.698Z,2.5
2023-08-02T13:54:17.138Z,1.9
2023-08-02T13:56:17.706Z,2.6
2023-08-02T13:58:18.512Z,2.2
2023-08-02T14:00:18.846Z,2.1
2023-08-02T14:02:19.309Z,2.5
2023-08-02T14:04:19.969Z,2.3
2023-08-02T14:06:20.492Z,2.5
2023-08-02T14:08:20.918Z,2.2
2023-08-02T14:10:22.087Z,2.6
2023-08-02T14:12:21.961Z,2.4
2023-08-02T14:14:22.535Z,2.3
2023-08-02T14:16:22.998Z,2.3
2023-08-02T14:18:23.536Z,2.9
2023-08-02T14:20:24.114Z,2.2
2023-08-02T14:22:24.653Z,2.4
2023-08-02T14:24:25.205Z,2.8
2023-08-02T14:26:25.493Z,2.5
2023-08-02T14:28:25.991Z,2.2
2023-08-02T14:30:26.570Z,2.7
2023-08-02T14:32:26.983Z,2.8
2023-08-02T14:34:27.469Z,2.3
2023-08-02T14:36:28.051Z,2.5
2023-08-02T14:38:28.510Z,3.2
2023-08-02T14:40:28.975Z,2.9
2023-08-02T14:42:29.498Z,3.1
2023-08-02T14:44:29.934Z,3.9
2023-08-02T14:46:30.563Z,2.9
2023-08-02T14:48:30.961Z,2.6
2023-08-02T14:50:31.637Z,3.1
2023-08-02T14:52:32.369Z,2.7
2023-08-02T14:54:32.409Z,2.9
2023-08-02T14:56:32.925Z,2.6
2023-08-02T14:58:33.486Z,3.1
2023-08-02T15:00:34.530Z,2.9
2023-08-02T15:02:34.486Z,2.7
2023-08-02T15:04:34.960Z,2.8
2023-08-02T15:06:35.706Z,3.1
2023-08-02T15:08:35.948Z,2.9
2023-08-02T15:10:37.480Z,3
2023-08-02T15:12:37.006Z,3.1
2023-08-02T15:14:37.376Z,2.9
2023-08-02T15:16:38.012Z,3.2
2023-08-02T15:18:38.403Z,3.5
2023-08-02T15:20:39.075Z,3.5
2023-08-02T15:22:39.543Z,3.2
2023-08-02T15:24:39.919Z,3.2
2023-08-02T15:26:40.571Z,3
2023-08-02T15:28:40.954Z,3.4
2023-08-02T15:30:41.466Z,2.9
2023-08-02T15:32:41.991Z,3.3
2023-08-02T15:34:42.551Z,3.2
2023-08-02T15:36:43.179Z,3.3
2023-08-02T15:38:43.432Z,3
2023-08-02T15:40:44.345Z,2.9
2023-08-02T15:42:44.624Z,3
2023-08-02T15:44:45.675Z,3
2023-08-02T15:46:45.909Z,3
2023-08-02T15:48:46.006Z,3.5
2023-08-02T15:50:46.702Z,2.8
2023-08-02T15:52:47.049Z,3.1
2023-08-02T15:54:47.415Z,3
2023-08-02T15:56:48.018Z,3
2023-08-02T15:58:48.732Z,2.8
2023-08-02T16:00:49.142Z,2.6
2023-08-02T16:02:49.467Z,2.7
2023-08-02T16:04:50.012Z,3.3
2023-08-02T16:06:51.225Z,3.2
2023-08-02T16:08:50.963Z,3.3
2023-08-02T16:10:51.558Z,2.9
2023-08-02T16:12:52.029Z,3.5
2023-08-02T16:14:52.472Z,3.4
2023-08-02T16:16:53.060Z,2.9
2023-08-02T16:18:53.437Z,3
2023-08-02T16:20:54.456Z,3
2023-08-02T16:22:54.488Z,3.2
2023-08-02T16:24:54.921Z,3.6
2023-08-02T16:26:55.414Z,3.9
2023-08-02T16:28:55.973Z,3.7
2023-08-02T16:30:56.463Z,3.7
2023-08-02T16:32:56.895Z,4
2023-08-02T16:34:57.394Z,3.5
2023-08-02T16:36:57.773Z,3.6
2023-08-02T16:38:58.273Z,3.7
2023-08-02T16:40:59.248Z,4
2023-08-02T16:42:59.279Z,4
2023-08-02T16:44:59.709Z,3.9
2023-08-02T16:47:00.327Z,3.9
2023-08-02T16:49:00.754Z,3.6
2023-08-02T16:51:01.556Z,3.9
2023-08-02T16:53:01.803Z,3.8
2023-08-02T16:55:02.320Z,3.5
2023-08-02T16:57:03.178Z,5
2023-08-02T16:59:03.144Z,4.9
2023-08-02T17:01:03.657Z,4.5
2023-08-02T17:03:04.086Z,3.8
2023-08-02T17:05:05.426Z,3.2
2023-08-02T17:07:05.601Z,3.2
2023-08-02T17:09:05.428Z,3.3
2023-08-02T17:11:06.173Z,3.8
2023-08-02T17:13:06.350Z,3.4
2023-08-02T17:15:07.490Z,3.4
2023-08-02T17:17:07.329Z,3.7
2023-08-02T17:19:07.697Z,3.8
2023-08-02T17:21:08.157Z,3.4
2023-08-02T17:23:08.758Z,3.7
2023-08-02T17:25:09.084Z,4.2
2023-08-02T17:27:09.498Z,6.8
2023-08-02T17:29:09.941Z,5.8
2023-08-02T17:31:10.391Z,5
2023-08-02T17:33:10.989Z,4.1
2023-08-02T17:35:11.279Z,4.3
2023-08-02T17:37:11.684Z,4.2
2023-08-02T17:39:12.131Z,3.7
2023-08-02T17:41:12.744Z,4.2
2023-08-02T17:43:13.046Z,3.9
2023-08-02T17:45:13.476Z,4.4
2023-08-02T17:47:13.922Z,4.3
2023-08-02T17:49:14.397Z,4.6
2023-08-02T17:51:15.205Z,4.3
2023-08-02T17:53:15.596Z,4.1
2023-08-02T17:55:15.690Z,4.2
2023-08-02T17:57:16.062Z,4
2023-08-02T17:59:16.663Z,4
2023-08-02T18:01:18.551Z,4.2
2023-08-02T18:03:17.480Z,4
2023-08-02T18:05:18.191Z,3.9
2023-08-02T18:07:18.285Z,4
2023-08-02T18:09:18.773Z,4.1
2023-08-02T18:11:19.273Z,4
2023-08-02T18:13:19.728Z,4
2023-08-02T18:15:19.996Z,4.6
2023-08-02T18:17:20.451Z,4.6
2023-08-02T18:19:20.987Z,4.9
2023-08-02T18:21:21.545Z,4.5
2023-08-02T18:23:21.762Z,4
2023-08-02T18:25:22.081Z,4.1
2023-08-02T18:27:22.556Z,4
2023-08-02T18:29:22.946Z,4.5
2023-08-02T18:31:23.998Z,3.9
2023-08-02T18:33:23.848Z,4.3
2023-08-02T18:35:24.862Z,4.1
2023-08-02T18:37:24.663Z,4.2
2023-08-02T18:39:25.118Z,4.1
2023-08-02T18:41:25.489Z,4.1
2023-08-02T18:43:25.907Z,4.6
2023-08-02T18:45:26.483Z,3.9
2023-08-02T18:47:26.795Z,4.4
2023-08-02T18:49:27.196Z,4.5
2023-08-02T18:51:28.734Z,4
2023-08-02T18:53:30.957Z,3.8
2023-08-02T18:55:29.325Z,3.9
2023-08-02T18:57:29.748Z,3.7
2023-08-02T18:59:29.223Z,3.7
2023-08-02T19:01:29.820Z,3.7
2023-08-02T19:03:30.163Z,3.8
2023-08-02T19:05:30.533Z,3.9
2023-08-02T19:07:33.504Z,3.9
2023-08-02T19:09:33.125Z,3.9
2023-08-02T19:11:31.929Z,3.9
2023-08-02T19:13:32.519Z,4.3
2023-08-02T19:15:32.582Z,4.2
2023-08-02T19:17:39.606Z,4.5
2023-08-02T19:19:33.374Z,4.3
2023-08-02T19:21:33.874Z,4.1
2023-08-02T19:23:35.777Z,4.4
2023-08-02T19:25:34.570Z,4.2
2023-08-02T19:27:35.112Z,4
2023-08-02T19:29:37.381Z,4.5
2023-08-02T19:31:35.904Z,4.9
2023-08-02T19:33:41.378Z,4.5
2023-08-02T19:35:36.574Z,4.4
2023-08-02T19:37:37.939Z,4.4
2023-08-02T19:39:47.005Z,4.5
2023-08-02T19:41:37.812Z,4.6
2023-08-02T19:43:38.105Z,4.3
2023-08-02T19:45:38.616Z,4.5
2023-08-02T19:47:38.996Z,4
2023-08-02T19:49:39.267Z,4.4
2023-08-02T19:51:40.007Z,4.7
2023-08-02T19:53:43.090Z,4.3
2023-08-02T19:55:40.603Z,4.3
2023-08-02T19:57:42.492Z,5.4
2023-08-02T19:59:41.594Z,4.6
2023-08-02T20:01:42.084Z,4.6
2023-08-02T20:03:42.137Z,5.6
2023-08-02T20:05:57.718Z,9.5
2023-08-02T20:07:43.072Z,11.1
2023-08-02T20:09:49.843Z,20.3
2023-08-02T20:11:43.976Z,22.2
2023-08-02T20:13:45.492Z,26.2
2023-08-02T20:15:44.468Z,25.8
2023-08-02T20:17:45.921Z,24.5
2023-08-02T20:19:45.222Z,22.5
2023-08-02T20:21:46.131Z,19.7
2023-08-02T20:23:47.740Z,18.7
2023-08-02T20:25:51.926Z,16.8
2023-08-02T20:27:46.668Z,18.1
2023-08-02T20:29:47.045Z,15.2
2023-08-02T20:31:47.590Z,13.1
2023-08-02T20:33:48.965Z,10.3
2023-08-02T20:35:48.251Z,9.9
2023-08-02T20:37:48.720Z,11.5
2023-08-02T20:39:48.996Z,12.9
2023-08-02T20:41:51.373Z,12.3
2023-08-02T20:43:52.530Z,12.6
2023-08-02T20:45:50.178Z,12.3
2023-08-02T20:47:50.610Z,8.9
2023-08-02T20:49:50.898Z,9.3
2023-08-02T20:51:51.306Z,8
2023-08-02T20:53:51.625Z,9.5
2023-08-02T20:55:52.009Z,8.8
2023-08-02T20:57:52.351Z,7.9
2023-08-02T20:59:52.747Z,6.8
2023-08-02T21:01:54.980Z,7.2
2023-08-02T21:03:56.678Z,9.2
2023-08-02T21:05:53.816Z,6.7
2023-08-02T21:07:54.395Z,7.3
2023-08-02T21:09:55.177Z,7.4
2023-08-02T21:11:55.225Z,7.2
2023-08-02T21:13:55.640Z,7.5
2023-08-02T21:15:55.704Z,6.7
2023-08-02T21:17:56.382Z,6.1
2023-08-02T21:19:57.072Z,6.2
2023-08-02T21:21:57.414Z,6.8
2023-08-02T21:23:57.259Z,6.6
2023-08-02T21:25:57.512Z,6.1
2023-08-02T21:27:57.852Z,6
2023-08-02T21:29:58.286Z,6
2023-08-02T21:32:00.266Z,6.1
2023-08-02T21:33:58.963Z,6
2023-08-02T21:35:59.662Z,6
2023-08-02T21:37:59.651Z,6.5
2023-08-02T21:40:00.081Z,6.2
2023-08-02T21:42:15.502Z,6.2
2023-08-02T21:44:00.781Z,6.4
2023-08-02T21:46:03.293Z,6.3
2023-08-02T21:48:05.936Z,6.1
2023-08-02T21:50:03.460Z,6
2023-08-02T21:52:02.139Z,5.7
2023-08-02T21:54:02.686Z,6
2023-08-02T21:56:03.295Z,6.1
2023-08-02T21:58:04.046Z,6.4
2023-08-02T22:00:05.686Z,6.8
2023-08-02T22:02:04.525Z,6.8
2023-08-02T22:04:05.787Z,7.5
2023-08-02T22:06:05.257Z,7.2
2023-08-02T22:08:09.591Z,6.9
2023-08-02T22:10:13.620Z,6.9
2023-08-02T22:12:06.653Z,6.9
2023-08-02T22:14:06.153Z,7.2
2023-08-02T22:16:09.713Z,7.3
2023-08-02T22:18:07.738Z,7.2
2023-08-02T22:20:08.206Z,7.2
2023-08-02T22:22:07.543Z,7.6
2023-08-02T22:24:07.921Z,7.9
2023-08-02T22:26:08.314Z,8.4
2023-08-02T22:28:08.571Z,8.4
2023-08-02T22:30:09.893Z,7.5
2023-08-02T22:32:09.453Z,7.6
2023-08-02T22:34:09.589Z,7.5
2023-08-02T22:36:10.028Z,7.6
2023-08-02T22:38:10.790Z,7.6
2023-08-02T22:40:11.216Z,7.7
2023-08-02T22:42:11.269Z,7.2
2023-08-02T22:44:11.341Z,7.4
2023-08-02T22:46:11.794Z,7.3
2023-08-02T22:48:34.001Z,7.2
2023-08-02T22:52:12.730Z,8.1
2023-08-02T22:54:13.170Z,8.1
2023-08-02T22:56:13.488Z,8.3
2023-08-02T22:58:13.926Z,8.4
2023-08-02T23:00:21.763Z,8.2
2023-08-02T23:02:14.987Z,8.2
2023-08-02T23:04:16.835Z,8.1
2023-08-02T23:06:18.734Z,7.5
2023-08-02T23:08:15.630Z,7.8
2023-08-02T23:10:35.106Z,8.2
2023-08-02T23:12:17.326Z,8.4
2023-08-02T23:14:18.999Z,7.9
2023-08-02T23:16:19.736Z,8.6
2023-08-02T23:18:21.327Z,9
2023-08-02T23:20:38.557Z,9.4
2023-08-02T23:22:18.060Z,8.7
2023-08-02T23:24:18.401Z,9.6
2023-08-02T23:26:23.750Z,9.6
2023-08-02T23:28:19.283Z,8.9
2023-08-02T23:30:19.824Z,8.4
2023-08-02T23:32:20.417Z,8.2
2023-08-02T23:34:20.188Z,7.4
2023-08-02T23:36:21.459Z,7.3
2023-08-02T23:38:21.023Z,7.3
2023-08-02T23:40:21.817Z,7.4
2023-08-02T23:42:21.716Z,6.8
2023-08-02T23:44:22.075Z,7.2
2023-08-02T23:46:22.363Z,7.1
2023-08-02T23:48:22.778Z,7.5
2023-08-02T23:50:23.231Z,7.5
2023-08-02T23:52:23.420Z,7.6
2023-08-02T23:54:23.721Z,7.1
2023-08-02T23:56:24.122Z,7.6
2023-08-02T23:58:24.444Z,8.2
